sensor_id;sensor_type;location;lat;lon;timestamp;pressure;altitude;pressure_sealevel;temperature;humidity
17311;BME280;8773;43.300;0.394;2022-08-19T00:01:53;100061.06;;;18.42;100.00
17311;BME280;8773;43.300;0.394;2022-08-19T00:04:26;100061.28;;;18.58;100.00
17311;BME280;8773;43.300;0.394;2022-08-19T00:06:55;100060.84;;;18.28;100.00
17311;BME280;8773;43.300;0.394;2022-08-19T00:09:24;100064.03;;;18.04;100.00
17311;BME280;8773;43.300;0.394;2022-08-19T00:11:53;100058.69;;;18.00;100.00
17311;BME280;8773;43.300;0.394;2022-08-19T00:14:24;100064.22;;;18.18;100.00
17311;BME280;8773;43.300;0.394;2022-08-19T00:16:53;100062.50;;;18.20;100.00
17311;BME280;8773;43.300;0.394;2022-08-19T00:19:23;100071.28;;;18.18;100.00
17311;BME280;8773;43.300;0.394;2022-08-19T00:21:51;100072.06;;;18.12;100.00
17311;BME280;8773;43.300;0.394;2022-08-19T00:24:21;100071.16;;;18.12;100.00
17311;BME280;8773;43.300;0.394;2022-08-19T00:26:50;100076.66;;;18.25;100.00
17311;BME280;8773;43.300;0.394;2022-08-19T00:29:20;100077.75;;;18.40;100.00
17311;BME280;8773;43.300;0.394;2022-08-19T00:31:49;100090.19;;;18.47;100.00
17311;BME280;8773;43.300;0.394;2022-08-19T00:34:20;100095.47;;;18.47;100.00
17311;BME280;8773;43.300;0.394;2022-08-19T00:36:48;100090.09;;;18.41;100.00
17311;BME280;8773;43.300;0.394;2022-08-19T00:39:17;100096.25;;;18.40;100.00
17311;BME280;8773;43.300;0.394;2022-08-19T00:41:48;100096.91;;;18.26;100.00
17311;BME280;8773;43.300;0.394;2022-08-19T00:44:21;100097.13;;;18.40;100.00
17311;BME280;8773;43.300;0.394;2022-08-19T00:46:54;100093.28;;;18.18;100.00
17311;BME280;8773;43.300;0.394;2022-08-19T00:49:28;100090.91;;;18.35;100.00
17311;BME280;8773;43.300;0.394;2022-08-19T00:52:01;100088.28;;;18.37;100.00
17311;BME280;8773;43.300;0.394;2022-08-19T00:54:31;100091.59;;;18.23;100.00
17311;BME280;8773;43.300;0.394;2022-08-19T00:57:02;100086.34;;;18.26;100.00
17311;BME280;8773;43.300;0.394;2022-08-19T00:59:35;100087.44;;;18.39;100.00
17311;BME280;8773;43.300;0.394;2022-08-19T01:02:24;100085.66;;;18.37;100.00
17311;BME280;8773;43.300;0.394;2022-08-19T01:04:52;100084.91;;;18.48;100.00
17311;BME280;8773;43.300;0.394;2022-08-19T01:07:21;100083.25;;;18.57;100.00
17311;BME280;8773;43.300;0.394;2022-08-19T01:09:50;100090.13;;;18.44;100.00
17311;BME280;8773;43.300;0.394;2022-08-19T01:12:20;100082.00;;;18.30;100.00
17311;BME280;8773;43.300;0.394;2022-08-19T01:14:48;100083.88;;;18.37;100.00
17311;BME280;8773;43.300;0.394;2022-08-19T01:17:17;100077.94;;;18.54;100.00
17311;BME280;8773;43.300;0.394;2022-08-19T01:19:46;100081.59;;;18.62;100.00
17311;BME280;8773;43.300;0.394;2022-08-19T01:22:19;100080.72;;;18.63;100.00
17311;BME280;8773;43.300;0.394;2022-08-19T01:24:58;100073.81;;;18.76;100.00
17311;BME280;8773;43.300;0.394;2022-08-19T01:27:26;100074.84;;;18.84;100.00
17311;BME280;8773;43.300;0.394;2022-08-19T01:30:10;100075.31;;;18.57;100.00
17311;BME280;8773;43.300;0.394;2022-08-19T01:32:44;100071.78;;;18.53;100.00
17311;BME280;8773;43.300;0.394;2022-08-19T01:35:40;100070.13;;;18.61;100.00
17311;BME280;8773;43.300;0.394;2022-08-19T01:38:41;100069.38;;;18.70;100.00
17311;BME280;8773;43.300;0.394;2022-08-19T01:41:23;100073.13;;;18.87;100.00
17311;BME280;8773;43.300;0.394;2022-08-19T01:43:51;100078.44;;;18.87;100.00
17311;BME280;8773;43.300;0.394;2022-08-19T01:46:40;100074.09;;;18.92;100.00
17311;BME280;8773;43.300;0.394;2022-08-19T01:49:08;100073.19;;;18.92;100.00
17311;BME280;8773;43.300;0.394;2022-08-19T01:51:37;100073.22;;;18.95;100.00
17311;BME280;8773;43.300;0.394;2022-08-19T01:54:06;100081.06;;;18.89;100.00
17311;BME280;8773;43.300;0.394;2022-08-19T01:56:35;100067.84;;;18.87;100.00
17311;BME280;8773;43.300;0.394;2022-08-19T01:59:08;100062.50;;;18.83;100.00
17311;BME280;8773;43.300;0.394;2022-08-19T02:01:38;100071.31;;;18.82;100.00
17311;BME280;8773;43.300;0.394;2022-08-19T02:04:06;100076.63;;;18.85;100.00
17311;BME280;8773;43.300;0.394;2022-08-19T02:06:34;100077.44;;;18.81;100.00
17311;BME280;8773;43.300;0.394;2022-08-19T02:09:04;100076.63;;;18.85;100.00
17311;BME280;8773;43.300;0.394;2022-08-19T02:11:37;100078.41;;;18.84;100.00
17311;BME280;8773;43.300;0.394;2022-08-19T02:14:07;100073.06;;;18.83;100.00
17311;BME280;8773;43.300;0.394;2022-08-19T02:16:35;100067.63;;;18.73;100.00
17311;BME280;8773;43.300;0.394;2022-08-19T02:19:04;100065.78;;;18.66;100.00
17311;BME280;8773;43.300;0.394;2022-08-19T02:21:32;100060.59;;;18.72;100.00
17311;BME280;8773;43.300;0.394;2022-08-19T02:24:01;100057.19;;;18.80;100.00
17311;BME280;8773;43.300;0.394;2022-08-19T02:26:29;100058.06;;;18.80;100.00
17311;BME280;8773;43.300;0.394;2022-08-19T02:28:58;100056.91;;;18.60;100.00
17311;BME280;8773;43.300;0.394;2022-08-19T02:31:27;100058.69;;;18.62;100.00
17311;BME280;8773;43.300;0.394;2022-08-19T02:33:56;100055.19;;;18.66;100.00
17311;BME280;8773;43.300;0.394;2022-08-19T02:36:24;100050.56;;;18.48;100.00
17311;BME280;8773;43.300;0.394;2022-08-19T02:38:53;100049.78;;;18.56;100.00
17311;BME280;8773;43.300;0.394;2022-08-19T02:41:23;100057.84;;;18.66;100.00
17311;BME280;8773;43.300;0.394;2022-08-19T02:43:53;100057.03;;;18.70;100.00
17311;BME280;8773;43.300;0.394;2022-08-19T02:46:44;100055.28;;;18.71;100.00
17311;BME280;8773;43.300;0.394;2022-08-19T02:49:13;100050.94;;;18.76;100.00
17311;BME280;8773;43.300;0.394;2022-08-19T02:51:44;100049.16;;;18.75;100.00
17311;BME280;8773;43.300;0.394;2022-08-19T02:54:14;100057.03;;;18.70;100.00
17311;BME280;8773;43.300;0.394;2022-08-19T02:56:43;100061.41;;;18.68;100.00
17311;BME280;8773;43.300;0.394;2022-08-19T02:59:11;100056.78;;;18.50;100.00
17311;BME280;8773;43.300;0.394;2022-08-19T03:01:42;100059.31;;;18.43;100.00
17311;BME280;8773;43.300;0.394;2022-08-19T03:04:13;100065.56;;;18.49;100.00
17311;BME280;8773;43.300;0.394;2022-08-19T03:06:44;100062.75;;;18.37;100.00
17311;BME280;8773;43.300;0.394;2022-08-19T03:09:13;100069.69;;;18.30;100.00
17311;BME280;8773;43.300;0.394;2022-08-19T03:11:41;100060.16;;;18.40;100.00
17311;BME280;8773;43.300;0.394;2022-08-19T03:14:10;100058.47;;;18.45;100.00
17311;BME280;8773;43.300;0.394;2022-08-19T03:16:43;100063.09;;;18.62;100.00
17311;BME280;8773;43.300;0.394;2022-08-19T03:19:12;100056.97;;;18.66;100.00
17311;BME280;8773;43.300;0.394;2022-08-19T03:21:41;100062.25;;;18.64;100.00
17311;BME280;8773;43.300;0.394;2022-08-19T03:24:11;100063.84;;;18.53;100.00
17311;BME280;8773;43.300;0.394;2022-08-19T03:26:40;100066.63;;;18.62;100.00
17311;BME280;8773;43.300;0.394;2022-08-19T03:29:09;100062.09;;;18.52;100.00
17311;BME280;8773;43.300;0.394;2022-08-19T03:31:40;100068.97;;;18.39;100.00
17311;BME280;8773;43.300;0.394;2022-08-19T03:34:22;100063.50;;;18.28;100.00
17311;BME280;8773;43.300;0.394;2022-08-19T03:36:53;100065.06;;;18.16;100.00
17311;BME280;8773;43.300;0.394;2022-08-19T03:39:22;100066.03;;;18.21;100.00
17311;BME280;8773;43.300;0.394;2022-08-19T03:41:52;100060.16;;;18.40;100.00
17311;BME280;8773;43.300;0.394;2022-08-19T03:44:42;100063.88;;;18.55;100.00
17311;BME280;8773;43.300;0.394;2022-08-19T03:47:11;100060.28;;;18.51;100.00
17311;BME280;8773;43.300;0.394;2022-08-19T03:49:44;100058.28;;;18.33;100.00
17311;BME280;8773;43.300;0.394;2022-08-19T03:52:13;100055.78;;;18.44;100.00
17311;BME280;8773;43.300;0.394;2022-08-19T03:54:41;100063.25;;;18.12;100.00
17311;BME280;8773;43.300;0.394;2022-08-19T03:57:09;100061.28;;;17.98;100.00
17311;BME280;8773;43.300;0.394;2022-08-19T03:59:38;100058.09;;;18.21;100.00
17311;BME280;8773;43.300;0.394;2022-08-19T04:02:09;100062.75;;;18.39;100.00
17311;BME280;8773;43.300;0.394;2022-08-19T04:04:40;100062.88;;;18.45;100.00
17311;BME280;8773;43.300;0.394;2022-08-19T04:07:12;100057.69;;;18.52;100.00
17311;BME280;8773;43.300;0.394;2022-08-19T04:09:42;100068.97;;;18.41;100.00
17311;BME280;8773;43.300;0.394;2022-08-19T04:12:10;100063.59;;;18.35;100.00
17311;BME280;8773;43.300;0.394;2022-08-19T04:14:38;100068.03;;;18.37;100.00
17311;BME280;8773;43.300;0.394;2022-08-19T04:17:06;100066.97;;;18.26;100.00
17311;BME280;8773;43.300;0.394;2022-08-19T04:19:35;100069.66;;;18.27;100.00
17311;BME280;8773;43.300;0.394;2022-08-19T04:22:06;100074.16;;;18.36;100.00
17311;BME280;8773;43.300;0.394;2022-08-19T04:24:35;100081.41;;;18.49;100.00
17311;BME280;8773;43.300;0.394;2022-08-19T04:27:04;100076.19;;;18.54;100.00
17311;BME280;8773;43.300;0.394;2022-08-19T04:29:33;100081.59;;;18.63;100.00
17311;BME280;8773;43.300;0.394;2022-08-19T04:32:02;100071.00;;;18.60;100.00
17311;BME280;8773;43.300;0.394;2022-08-19T04:34:36;100078.91;;;18.60;100.00
17311;BME280;8773;43.300;0.394;2022-08-19T04:37:24;100071.91;;;18.62;100.00
17311;BME280;8773;43.300;0.394;2022-08-19T04:40:04;100076.13;;;18.51;100.00
17311;BME280;8773;43.300;0.394;2022-08-19T04:42:50;100074.50;;;18.59;100.00
17311;BME280;8773;43.300;0.394;2022-08-19T04:45:18;100075.50;;;18.67;100.00
17311;BME280;8773;43.300;0.394;2022-08-19T04:47:48;100078.97;;;18.66;100.00
17311;BME280;8773;43.300;0.394;2022-08-19T04:50:40;100083.06;;;18.43;100.00
17311;BME280;8773;43.300;0.394;2022-08-19T04:53:09;100084.63;;;18.28;100.00
17311;BME280;8773;43.300;0.394;2022-08-19T04:55:42;100083.94;;;18.40;100.00
17311;BME280;8773;43.300;0.394;2022-08-19T04:58:10;100085.84;;;18.54;100.00
17311;BME280;8773;43.300;0.394;2022-08-19T05:00:38;100080.44;;;18.43;100.00
17311;BME280;8773;43.300;0.394;2022-08-19T05:03:07;100088.03;;;18.21;100.00
17311;BME280;8773;43.300;0.394;2022-08-19T05:05:39;100091.69;;;18.29;100.00
17311;BME280;8773;43.300;0.394;2022-08-19T05:08:11;100090.72;;;18.23;100.00
17311;BME280;8773;43.300;0.394;2022-08-19T05:10:42;100090.81;;;18.30;100.00
17311;BME280;8773;43.300;0.394;2022-08-19T05:13:11;100086.63;;;18.45;100.00
17311;BME280;8773;43.300;0.394;2022-08-19T05:15:39;100089.66;;;18.13;100.00
17311;BME280;8773;43.300;0.394;2022-08-19T05:18:07;100096.25;;;18.41;100.00
17311;BME280;8773;43.300;0.394;2022-08-19T05:20:53;100092.03;;;18.54;100.00
17311;BME280;8773;43.300;0.394;2022-08-19T05:23:38;100089.38;;;18.52;100.00
17311;BME280;8773;43.300;0.394;2022-08-19T05:26:08;100100.94;;;18.59;100.00
17311;BME280;8773;43.300;0.394;2022-08-19T05:28:37;100093.00;;;18.59;100.00
17311;BME280;8773;43.300;0.394;2022-08-19T05:31:05;100093.88;;;18.61;100.00
17311;BME280;8773;43.300;0.394;2022-08-19T05:33:33;100099.19;;;18.61;100.00
17311;BME280;8773;43.300;0.394;2022-08-19T05:36:02;100094.81;;;18.62;100.00
17311;BME280;8773;43.300;0.394;2022-08-19T05:38:31;100094.66;;;18.54;100.00
17311;BME280;8773;43.300;0.394;2022-08-19T05:40:59;100095.69;;;18.62;100.00
17311;BME280;8773;43.300;0.394;2022-08-19T05:43:28;100095.59;;;18.56;100.00
17311;BME280;8773;43.300;0.394;2022-08-19T05:45:56;100098.31;;;18.62;100.00
17311;BME280;8773;43.300;0.394;2022-08-19T05:48:24;100099.34;;;18.72;100.00
17311;BME280;8773;43.300;0.394;2022-08-19T05:50:52;100100.19;;;18.71;100.00
17311;BME280;8773;43.300;0.394;2022-08-19T05:53:20;100106.44;;;18.75;100.00
17311;BME280;8773;43.300;0.394;2022-08-19T05:55:48;100101.13;;;18.76;100.00
17311;BME280;8773;43.300;0.394;2022-08-19T05:58:16;100109.28;;;18.90;100.00
17311;BME280;8773;43.300;0.394;2022-08-19T06:00:50;100107.47;;;18.86;100.00
17311;BME280;8773;43.300;0.394;2022-08-19T06:03:18;100112.56;;;18.72;100.00
17311;BME280;8773;43.300;0.394;2022-08-19T06:05:46;100115.34;;;18.80;100.00
17311;BME280;8773;43.300;0.394;2022-08-19T06:08:18;100114.25;;;18.67;100.00
17311;BME280;8773;43.300;0.394;2022-08-19T06:11:14;100114.38;;;18.78;100.00
17311;BME280;8773;43.300;0.394;2022-08-19T06:13:43;100118.22;;;19.00;100.00
17311;BME280;8773;43.300;0.394;2022-08-19T06:16:13;100116.59;;;19.09;100.00
17311;BME280;8773;43.300;0.394;2022-08-19T06:18:45;100113.13;;;19.16;100.00
17311;BME280;8773;43.300;0.394;2022-08-19T06:21:14;100127.44;;;19.32;100.00
17311;BME280;8773;43.300;0.394;2022-08-19T06:23:42;100129.25;;;19.38;100.00
17311;BME280;8773;43.300;0.394;2022-08-19T06:26:11;100127.53;;;19.43;100.00
17311;BME280;8773;43.300;0.394;2022-08-19T06:28:39;100134.41;;;19.24;100.00
17311;BME280;8773;43.300;0.394;2022-08-19T06:31:10;100141.63;;;19.39;100.00
17311;BME280;8773;43.300;0.394;2022-08-19T06:33:42;100138.16;;;19.45;100.00
17311;BME280;8773;43.300;0.394;2022-08-19T06:36:17;100133.78;;;19.50;100.00
17311;BME280;8773;43.300;0.394;2022-08-19T06:38:45;100141.81;;;19.57;100.00
17311;BME280;8773;43.300;0.394;2022-08-19T06:41:13;100139.31;;;19.71;100.00
17311;BME280;8773;43.300;0.394;2022-08-19T06:43:42;100144.75;;;19.82;100.00
17311;BME280;8773;43.300;0.394;2022-08-19T06:46:13;100138.75;;;20.03;100.00
17311;BME280;8773;43.300;0.394;2022-08-19T06:48:44;100140.34;;;19.86;100.00
17311;BME280;8773;43.300;0.394;2022-08-19T06:51:13;100137.66;;;19.81;100.00
17311;BME280;8773;43.300;0.394;2022-08-19T06:53:45;100143.38;;;20.30;100.00
17311;BME280;8773;43.300;0.394;2022-08-19T06:56:15;100135.41;;;20.29;100.00
17311;BME280;8773;43.300;0.394;2022-08-19T06:58:43;100140.19;;;20.74;100.00
17311;BME280;8773;43.300;0.394;2022-08-19T07:01:11;100142.03;;;20.89;100.00
17311;BME280;8773;43.300;0.394;2022-08-19T07:03:39;100149.41;;;21.64;100.00
17311;BME280;8773;43.300;0.394;2022-08-19T07:06:10;100150.34;;;22.49;100.00
17311;BME280;8773;43.300;0.394;2022-08-19T07:08:59;100160.38;;;24.05;100.00
17311;BME280;8773;43.300;0.394;2022-08-19T07:11:27;100154.66;;;25.32;100.00
17311;BME280;8773;43.300;0.394;2022-08-19T07:14:05;100163.63;;;26.49;100.00
17311;BME280;8773;43.300;0.394;2022-08-19T07:16:47;100166.03;;;27.11;100.00
17311;BME280;8773;43.300;0.394;2022-08-19T07:19:17;100165.25;;;27.88;100.00
17311;BME280;8773;43.300;0.394;2022-08-19T07:21:50;100167.06;;;28.59;100.00
17311;BME280;8773;43.300;0.394;2022-08-19T07:24:20;100173.63;;;28.47;100.00
17311;BME280;8773;43.300;0.394;2022-08-19T07:26:51;100177.56;;;28.34;100.00
17311;BME280;8773;43.300;0.394;2022-08-19T07:29:20;100174.66;;;28.76;100.00
17311;BME280;8773;43.300;0.394;2022-08-19T07:31:54;100169.84;;;28.89;100.00
17311;BME280;8773;43.300;0.394;2022-08-19T07:34:28;100182.25;;;29.26;100.00
17311;BME280;8773;43.300;0.394;2022-08-19T07:37:06;100175.59;;;29.08;100.00
17311;BME280;8773;43.300;0.394;2022-08-19T07:39:35;100179.31;;;29.02;100.00
17311;BME280;8773;43.300;0.394;2022-08-19T07:42:07;100185.31;;;28.45;100.00
17311;BME280;8773;43.300;0.394;2022-08-19T07:44:40;100185.19;;;27.33;100.00
17311;BME280;8773;43.300;0.394;2022-08-19T07:47:17;100176.94;;;26.50;100.00
17311;BME280;8773;43.300;0.394;2022-08-19T07:50:08;100174.28;;;25.31;100.00
17311;BME280;8773;43.300;0.394;2022-08-19T07:52:39;100183.94;;;24.53;100.00
17311;BME280;8773;43.300;0.394;2022-08-19T07:55:08;100178.91;;;24.18;100.00
17311;BME280;8773;43.300;0.394;2022-08-19T07:57:57;100166.88;;;23.55;100.00
17311;BME280;8773;43.300;0.394;2022-08-19T08:00:25;100160.94;;;22.86;100.00
17311;BME280;8773;43.300;0.394;2022-08-19T08:02:53;100166.31;;;22.63;100.00
17311;BME280;8773;43.300;0.394;2022-08-19T08:05:22;100164.53;;;22.35;100.00
17311;BME280;8773;43.300;0.394;2022-08-19T08:08:11;100163.66;;;22.04;100.00
17311;BME280;8773;43.300;0.394;2022-08-19T08:10:58;100162.75;;;22.02;100.00
17311;BME280;8773;43.300;0.394;2022-08-19T08:13:27;100164.53;;;22.05;100.00
17311;BME280;8773;43.300;0.394;2022-08-19T08:15:55;100161.88;;;21.97;100.00
17311;BME280;8773;43.300;0.394;2022-08-19T08:18:24;100168.06;;;22.10;100.00
17311;BME280;8773;43.300;0.394;2022-08-19T08:20:54;100165.41;;;22.30;100.00
17311;BME280;8773;43.300;0.394;2022-08-19T08:23:24;100168.94;;;22.50;100.00
17311;BME280;8773;43.300;0.394;2022-08-19T08:25:55;100163.63;;;22.73;100.00
17311;BME280;8773;43.300;0.394;2022-08-19T08:28:24;100165.34;;;22.88;100.00
17311;BME280;8773;43.300;0.394;2022-08-19T08:30:56;100170.69;;;22.82;100.00
17311;BME280;8773;43.300;0.394;2022-08-19T08:33:26;100167.13;;;22.89;100.00
17311;BME280;8773;43.300;0.394;2022-08-19T08:36:01;100162.78;;;22.44;100.00
17311;BME280;8773;43.300;0.394;2022-08-19T08:38:33;100168.97;;;22.30;100.00
17311;BME280;8773;43.300;0.394;2022-08-19T08:41:15;100167.19;;;22.03;100.00
17311;BME280;8773;43.300;0.394;2022-08-19T08:43:49;100161.00;;;22.23;100.00
17311;BME280;8773;43.300;0.394;2022-08-19T08:46:23;100163.53;;;21.60;100.00
17311;BME280;8773;43.300;0.394;2022-08-19T08:49:01;100166.31;;;22.00;100.00
17311;BME280;8773;43.300;0.394;2022-08-19T08:51:35;100176.03;;;22.41;100.00
17311;BME280;8773;43.300;0.394;2022-08-19T08:54:08;100181.28;;;23.04;100.00
17311;BME280;8773;43.300;0.394;2022-08-19T08:56:38;100176.69;;;23.47;100.00
17311;BME280;8773;43.300;0.394;2022-08-19T08:59:12;100188.34;;;23.17;100.00
17311;BME280;8773;43.300;0.394;2022-08-19T09:01:43;100172.41;;;22.98;100.00
17311;BME280;8773;43.300;0.394;2022-08-19T09:04:12;100186.47;;;23.45;100.00
17311;BME280;8773;43.300;0.394;2022-08-19T09:06:49;100180.19;;;23.60;100.00
17311;BME280;8773;43.300;0.394;2022-08-19T09:09:26;100183.56;;;23.85;100.00
17311;BME280;8773;43.300;0.394;2022-08-19T09:12:05;100176.31;;;24.12;100.00
17311;BME280;8773;43.300;0.394;2022-08-19T09:14:43;100185.09;;;24.24;100.00
17311;BME280;8773;43.300;0.394;2022-08-19T09:17:18;100178.59;;;24.53;100.00
17311;BME280;8773;43.300;0.394;2022-08-19T09:19:52;100170.31;;;24.88;100.00
17311;BME280;8773;43.300;0.394;2022-08-19T09:22:21;100177.47;;;24.80;100.00
17311;BME280;8773;43.300;0.394;2022-08-19T09:24:54;100167.69;;;24.82;100.00
17311;BME280;8773;43.300;0.394;2022-08-19T09:27:23;100169.03;;;25.20;100.00
17311;BME280;8773;43.300;0.394;2022-08-19T09:30:12;100163.34;;;24.72;100.00
17311;BME280;8773;43.300;0.394;2022-08-19T09:32:41;100166.94;;;24.68;100.00
17311;BME280;8773;43.300;0.394;2022-08-19T09:35:10;100164.31;;;24.65;100.00
17311;BME280;8773;43.300;0.394;2022-08-19T09:37:39;100160.25;;;24.18;100.00
17311;BME280;8773;43.300;0.394;2022-08-19T09:40:13;100169.97;;;24.25;100.00
17311;BME280;8773;43.300;0.394;2022-08-19T09:42:41;100167.09;;;24.48;100.00
17311;BME280;8773;43.300;0.394;2022-08-19T09:45:19;100171.00;;;24.12;100.00
17311;BME280;8773;43.300;0.394;2022-08-19T09:47:49;100166.75;;;23.81;100.00
17311;BME280;8773;43.300;0.394;2022-08-19T09:50:20;100165.22;;;24.64;100.00
17311;BME280;8773;43.300;0.394;2022-08-19T09:52:48;100166.84;;;24.79;100.00
17311;BME280;8773;43.300;0.394;2022-08-19T09:55:25;100166.13;;;24.61;100.00
17311;BME280;8773;43.300;0.394;2022-08-19T09:57:59;100159.69;;;24.81;100.00
17311;BME280;8773;43.300;0.394;2022-08-19T10:00:27;100158.38;;;25.17;100.00
17311;BME280;8773;43.300;0.394;2022-08-19T10:02:56;100151.25;;;25.18;100.00
17311;BME280;8773;43.300;0.394;2022-08-19T10:05:27;100152.38;;;25.00;100.00
17311;BME280;8773;43.300;0.394;2022-08-19T10:08:15;100162.06;;;25.05;100.00
17311;BME280;8773;43.300;0.394;2022-08-19T10:10:45;100152.00;;;25.32;100.00
17311;BME280;8773;43.300;0.394;2022-08-19T10:13:15;100153.63;;;25.44;100.00
17311;BME280;8773;43.300;0.394;2022-08-19T10:15:43;100155.03;;;25.69;100.00
17311;BME280;8773;43.300;0.394;2022-08-19T10:18:15;100146.09;;;25.02;100.00
17311;BME280;8773;43.300;0.394;2022-08-19T10:20:45;100147.53;;;24.52;100.00
17311;BME280;8773;43.300;0.394;2022-08-19T10:23:19;100148.47;;;24.46;100.00
17311;BME280;8773;43.300;0.394;2022-08-19T10:25:49;100152.31;;;24.15;100.00
17311;BME280;8773;43.300;0.394;2022-08-19T10:28:20;100155.91;;;24.09;100.00
17311;BME280;8773;43.300;0.394;2022-08-19T10:30:49;100157.50;;;24.32;100.00
17311;BME280;8773;43.300;0.394;2022-08-19T10:33:18;100160.09;;;24.39;100.00
17311;BME280;8773;43.300;0.394;2022-08-19T10:36:13;100159.81;;;24.71;100.00
17311;BME280;8773;43.300;0.394;2022-08-19T10:38:48;100148.56;;;25.22;100.00
17311;BME280;8773;43.300;0.394;2022-08-19T10:41:25;100144.47;;;25.63;100.00
17311;BME280;8773;43.300;0.394;2022-08-19T10:43:55;100146.69;;;25.94;100.00
17311;BME280;8773;43.300;0.394;2022-08-19T10:46:30;100148.63;;;25.81;100.00
17311;BME280;8773;43.300;0.394;2022-08-19T10:49:00;100152.31;;;25.72;100.00
17311;BME280;8773;43.300;0.394;2022-08-19T10:51:28;100153.25;;;25.70;100.00
17311;BME280;8773;43.300;0.394;2022-08-19T10:54:15;100153.41;;;25.57;100.00
17311;BME280;8773;43.300;0.394;2022-08-19T10:56:58;100140.38;;;25.36;100.00
17311;BME280;8773;43.300;0.394;2022-08-19T10:59:27;100147.91;;;25.00;100.00
17311;BME280;8773;43.300;0.394;2022-08-19T11:02:03;100140.25;;;24.68;100.00
17311;BME280;8773;43.300;0.394;2022-08-19T11:04:32;100143.81;;;24.71;100.00
17311;BME280;8773;43.300;0.394;2022-08-19T11:07:01;100136.97;;;24.40;100.00
17311;BME280;8773;43.300;0.394;2022-08-19T11:09:30;100141.31;;;24.50;100.00
17311;BME280;8773;43.300;0.394;2022-08-19T11:12:01;100140.78;;;24.11;100.00
17311;BME280;8773;43.300;0.394;2022-08-19T11:14:38;100139.25;;;23.76;100.00
17311;BME280;8773;43.300;0.394;2022-08-19T11:17:09;100133.84;;;23.89;100.00
17311;BME280;8773;43.300;0.394;2022-08-19T11:19:40;100140.00;;;23.92;100.00
17311;BME280;8773;43.300;0.394;2022-08-19T11:22:09;100129.97;;;24.31;100.00
17311;BME280;8773;43.300;0.394;2022-08-19T11:24:41;100126.13;;;24.60;100.00
17311;BME280;8773;43.300;0.394;2022-08-19T11:27:10;100122.19;;;24.94;100.00
17311;BME280;8773;43.300;0.394;2022-08-19T11:29:41;100119.13;;;25.28;100.00
17311;BME280;8773;43.300;0.394;2022-08-19T11:32:10;100106.91;;;25.07;100.00
17311;BME280;8773;43.300;0.394;2022-08-19T11:34:39;100111.00;;;25.36;100.00
17311;BME280;8773;43.300;0.394;2022-08-19T11:37:07;100110.84;;;25.48;100.00
17311;BME280;8773;43.300;0.394;2022-08-19T11:39:36;100105.25;;;25.64;100.00
17311;BME280;8773;43.300;0.394;2022-08-19T11:42:06;100112.75;;;25.39;99.75
17311;BME280;8773;43.300;0.394;2022-08-19T11:44:56;100107.75;;;25.74;94.64
17311;BME280;8773;43.300;0.394;2022-08-19T11:47:23;100100.69;;;25.08;97.24
17311;BME280;8773;43.300;0.394;2022-08-19T11:49:52;100091.97;;;25.59;100.00
17311;BME280;8773;43.300;0.394;2022-08-19T11:52:20;100089.22;;;26.19;99.83
17311;BME280;8773;43.300;0.394;2022-08-19T11:54:48;100086.78;;;26.55;99.56
17311;BME280;8773;43.300;0.394;2022-08-19T11:57:16;100092.94;;;26.11;93.61
17311;BME280;8773;43.300;0.394;2022-08-19T11:59:49;100083.16;;;26.10;96.32
17311;BME280;8773;43.300;0.394;2022-08-19T12:02:19;100080.00;;;26.36;98.45
17311;BME280;8773;43.300;0.394;2022-08-19T12:04:48;100075.13;;;26.59;93.66
17311;BME280;8773;43.300;0.394;2022-08-19T12:07:18;100074.00;;;26.71;93.14
17311;BME280;8773;43.300;0.394;2022-08-19T12:09:46;100084.31;;;26.90;92.27
17311;BME280;8773;43.300;0.394;2022-08-19T12:12:15;100082.59;;;25.91;96.34
17311;BME280;8773;43.300;0.394;2022-08-19T12:14:43;100090.03;;;25.69;98.42
17311;BME280;8773;43.300;0.394;2022-08-19T12:17:13;100088.56;;;25.48;100.00
17311;BME280;8773;43.300;0.394;2022-08-19T12:19:42;100086.75;;;25.50;100.00
17311;BME280;8773;43.300;0.394;2022-08-19T12:22:11;100088.88;;;25.26;100.00
17311;BME280;8773;43.300;0.394;2022-08-19T12:24:39;100086.13;;;24.58;100.00
17311;BME280;8773;43.300;0.394;2022-08-19T12:27:08;100082.06;;;24.23;100.00
17311;BME280;8773;43.300;0.394;2022-08-19T12:29:38;100086.38;;;24.34;100.00
17311;BME280;8773;43.300;0.394;2022-08-19T12:32:08;100085.38;;;24.44;100.00
17311;BME280;8773;43.300;0.394;2022-08-19T12:34:37;100078.91;;;24.68;100.00
17311;BME280;8773;43.300;0.394;2022-08-19T12:37:07;100075.69;;;25.14;100.00
17311;BME280;8773;43.300;0.394;2022-08-19T12:39:38;100081.28;;;25.57;100.00
17311;BME280;8773;43.300;0.394;2022-08-19T12:42:13;100079.72;;;26.02;94.68
17311;BME280;8773;43.300;0.394;2022-08-19T12:44:45;100069.81;;;26.08;93.46
17311;BME280;8773;43.300;0.394;2022-08-19T12:47:16;100069.91;;;26.53;88.23
17311;BME280;8773;43.300;0.394;2022-08-19T12:49:45;100074.41;;;26.00;85.45
17311;BME280;8773;43.300;0.394;2022-08-19T12:52:23;100066.66;;;26.33;88.10
17311;BME280;8773;43.300;0.394;2022-08-19T12:54:52;100060.53;;;26.28;87.34
17311;BME280;8773;43.300;0.394;2022-08-19T12:57:22;100060.88;;;26.59;91.53
17311;BME280;8773;43.300;0.394;2022-08-19T13:00:00;100049.38;;;26.54;89.69
17311;BME280;8773;43.300;0.394;2022-08-19T13:02:32;100052.63;;;26.21;89.42
17311;BME280;8773;43.300;0.394;2022-08-19T13:05:06;100053.28;;;25.85;87.28
17311;BME280;8773;43.300;0.394;2022-08-19T13:07:40;100055.53;;;26.11;87.64
17311;BME280;8773;43.300;0.394;2022-08-19T13:10:12;100048.31;;;26.13;90.17
17311;BME280;8773;43.300;0.394;2022-08-19T13:12:42;100041.75;;;25.81;94.01
17311;BME280;8773;43.300;0.394;2022-08-19T13:15:11;100041.69;;;25.84;93.52